Time;durP1;ratioP1;P1;durP2;ratioP2;P2;SDS_P1;SDS_P2;PMS_P1;PMS_P2;Temp;Humidity;BMP_temperature;BMP_pressure;BME280_temperature;BME280_humidity;BME280_pressure;Samples;Min_cycle;Max_cycle;Signal;HPM_P1;HPM_P2
2021/05/16 00:01:26;;;;;;;3.20;2.53;;;16.50;70.60;;;;;;5046937;28;20045;-42
2021/05/16 00:03:52;;;;;;;2.75;2.33;;;16.50;70.60;;;;;;5041394;28;20053;-40
2021/05/16 00:06:17;;;;;;;2.80;2.38;;;16.50;70.60;;;;;;5033521;28;20050;-48
2021/05/16 00:08:44;;;;;;;2.85;2.50;;;16.50;70.60;;;;;;5032464;28;20489;-47
2021/05/16 00:11:10;;;;;;;3.13;2.60;;;16.50;70.60;;;;;;5032135;28;20133;-45
2021/05/16 00:13:36;;;;;;;2.67;2.20;;;16.50;70.60;;;;;;5044050;28;20120;-40
2021/05/16 00:16:02;;;;;;;3.17;2.63;;;16.50;70.60;;;;;;5042824;28;20045;-44
2021/05/16 00:18:29;;;;;;;2.38;2.17;;;16.50;70.60;;;;;;5033067;28;20060;-41
2021/05/16 00:20:55;;;;;;;3.20;2.90;;;16.50;70.60;;;;;;5051744;28;20127;-46
2021/05/16 00:23:20;;;;;;;2.50;2.30;;;16.50;70.60;;;;;;5051926;28;20057;-44
2021/05/16 00:25:46;;;;;;;6.25;2.50;;;16.60;70.70;;;;;;5033368;28;20056;-44
2021/05/16 00:28:12;;;;;;;2.63;2.20;;;16.50;70.60;;;;;;5033023;28;20045;-49
2021/05/16 00:30:38;;;;;;;2.33;2.13;;;16.50;70.60;;;;;;5031906;28;20049;-45
2021/05/16 00:33:04;;;;;;;3.00;2.70;;;16.50;70.60;;;;;;5032839;28;20064;-45
2021/05/16 00:35:32;;;;;;;2.80;2.50;;;16.50;70.60;;;;;;5050536;28;20481;-44
2021/05/16 00:37:59;;;;;;;2.88;2.58;;;16.50;70.60;;;;;;5053925;28;20053;-44
2021/05/16 00:40:27;;;;;;;2.72;2.10;;;16.60;70.70;;;;;;5055339;28;20053;-44
2021/05/16 00:42:53;;;;;;;2.90;2.40;;;16.60;70.70;;;;;;5055845;28;20140;-45
2021/05/16 00:45:21;;;;;;;2.90;2.60;;;16.50;70.60;;;;;;5055166;28;20045;-44
2021/05/16 00:47:50;;;;;;;2.38;2.17;;;16.50;70.60;;;;;;5051997;28;20103;-46
2021/05/16 00:50:19;;;;;;;2.47;2.20;;;16.50;70.60;;;;;;5048882;28;20049;-41
2021/05/16 00:52:45;;;;;;;2.88;2.58;;;16.50;70.60;;;;;;5035833;28;20076;-46
2021/05/16 00:55:12;;;;;;;2.53;2.33;;;16.50;70.60;;;;;;5039665;28;20048;-43
2021/05/16 00:57:39;;;;;;;2.55;2.22;;;16.50;70.70;;;;;;5053626;28;20057;-48
2021/05/16 01:00:08;;;;;;;2.25;2.00;;;16.50;70.70;;;;;;5050170;28;20057;-43
2021/05/16 01:02:34;;;;;;;2.45;2.03;;;16.50;70.70;;;;;;5035534;28;20417;-42
2021/05/16 01:04:59;;;;;;;2.53;2.15;;;16.50;70.70;;;;;;5043546;28;20136;-46
2021/05/16 01:07:26;;;;;;;2.42;2.10;;;16.50;70.70;;;;;;5052173;28;20041;-43
2021/05/16 01:09:51;;;;;;;2.33;2.13;;;16.50;70.70;;;;;;5036590;28;20056;-45
2021/05/16 01:12:17;;;;;;;2.30;2.10;;;16.50;70.70;;;;;;5036452;28;20045;-44
2021/05/16 01:14:45;;;;;;;2.53;2.20;;;16.50;70.70;;;;;;5035360;28;20132;-48
2021/05/16 01:17:11;;;;;;;2.20;2.00;;;16.50;70.70;;;;;;5034905;28;20092;-46
2021/05/16 01:19:38;;;;;;;2.13;1.92;;;16.60;70.70;;;;;;5035217;28;20099;-44
2021/05/16 01:22:06;;;;;;;2.83;2.42;;;16.50;70.70;;;;;;5035034;28;20042;-42
2021/05/16 01:24:33;;;;;;;2.70;2.33;;;16.50;70.70;;;;;;5051159;28;20076;-44
2021/05/16 01:26:59;;;;;;;2.20;1.95;;;16.50;70.70;;;;;;5054504;28;20120;-46
2021/05/16 01:29:26;;;;;;;2.13;1.90;;;16.50;70.70;;;;;;5055026;28;20127;-43
2021/05/16 01:31:52;;;;;;;2.72;2.05;;;16.50;70.70;;;;;;5042273;28;20111;-43
2021/05/16 01:34:18;;;;;;;2.40;2.20;;;16.40;70.60;;;;;;5025735;28;20491;-44
2021/05/16 01:36:44;;;;;;;2.30;1.90;;;16.50;70.70;;;;;;5036664;28;20048;-40
2021/05/16 01:39:12;;;;;;;3.28;2.38;;;16.50;70.70;;;;;;5044952;28;20477;-45
2021/05/16 01:41:38;;;;;;;2.58;2.38;;;16.50;70.70;;;;;;5034627;28;20575;-43
2021/05/16 01:44:07;;;;;;;2.50;2.15;;;16.50;70.70;;;;;;5050983;28;20052;-45
2021/05/16 01:46:33;;;;;;;2.35;1.98;;;16.50;70.70;;;;;;5053733;28;20041;-46
2021/05/16 01:48:59;;;;;;;2.65;2.45;;;16.50;70.70;;;;;;5054023;28;20063;-43
2021/05/16 01:51:25;;;;;;;2.47;2.08;;;16.50;70.70;;;;;;5054541;28;20090;-43
2021/05/16 01:53:51;;;;;;;2.30;2.10;;;16.50;70.70;;;;;;5054054;28;20053;-46
2021/05/16 01:56:25;;;;;;;2.13;1.95;;;16.40;70.70;;;;;;5052496;28;20049;-46
2021/05/16 01:58:54;;;;;;;2.40;2.07;;;16.50;70.70;;;;;;5042093;28;20053;-40
2021/05/16 02:01:20;;;;;;;2.35;1.80;;;16.50;70.70;;;;;;5034183;28;20391;-48
2021/05/16 02:03:46;;;;;;;2.30;1.77;;;16.40;70.70;;;;;;5049703;28;20080;-44
2021/05/16 02:06:16;;;;;;;2.53;2.10;;;16.50;70.70;;;;;;5052830;28;20053;-44
2021/05/16 02:08:43;;;;;;;2.25;1.88;;;16.50;70.80;;;;;;5035606;28;20459;-45
2021/05/16 02:11:10;;;;;;;2.38;2.17;;;16.40;70.70;;;;;;5034131;28;20137;-46
2021/05/16 02:13:40;;;;;;;2.50;2.20;;;16.40;70.70;;;;;;5034210;28;20057;-44
2021/05/16 02:16:08;;;;;;;2.22;2.00;;;16.50;70.70;;;;;;5035416;28;20041;-45
2021/05/16 02:18:34;;;;;;;2.25;2.05;;;16.40;70.80;;;;;;5039669;28;20041;-42
2021/05/16 02:21:03;;;;;;;2.25;2.05;;;16.50;70.80;;;;;;5054181;28;20041;-50
2021/05/16 02:23:29;;;;;;;2.47;2.00;;;16.40;70.80;;;;;;5048861;28;20053;-45
2021/05/16 02:25:54;;;;;;;2.20;2.00;;;16.40;70.70;;;;;;5034060;28;20168;-42
2021/05/16 02:28:21;;;;;;;2.15;1.73;;;16.40;70.70;;;;;;5035428;28;20084;-42
2021/05/16 02:30:47;;;;;;;2.90;2.40;;;16.40;70.70;;;;;;5034086;28;20041;-45
2021/05/16 02:33:13;;;;;;;2.47;2.15;;;16.40;70.70;;;;;;5033885;28;20049;-49
2021/05/16 02:35:39;;;;;;;2.20;2.00;;;16.40;70.70;;;;;;5048887;28;20049;-48
2021/05/16 02:38:05;;;;;;;2.00;1.80;;;16.40;70.70;;;;;;5034268;28;20056;-47
2021/05/16 02:40:31;;;;;;;2.45;2.03;;;16.40;70.80;;;;;;5053514;28;20048;-48
2021/05/16 02:42:57;;;;;;;2.55;1.88;;;16.40;70.70;;;;;;5053373;28;20052;-47
2021/05/16 02:45:23;;;;;;;2.67;2.15;;;16.50;70.80;;;;;;5048215;28;20042;-45
2021/05/16 02:47:49;;;;;;;2.17;1.67;;;16.40;70.80;;;;;;5040798;28;20095;-42
2021/05/16 02:50:16;;;;;;;2.10;1.90;;;16.40;70.80;;;;;;5049100;28;20045;-46
2021/05/16 02:52:42;;;;;;;2.15;1.95;;;16.40;70.80;;;;;;5033745;28;20045;-47
2021/05/16 02:55:08;;;;;;;2.00;1.80;;;16.40;71.50;;;;;;5033310;28;20053;-45
2021/05/16 02:57:34;;;;;;;1.88;1.70;;;16.40;70.80;;;;;;5032707;28;20088;-49
2021/05/16 03:00:00;;;;;;;1.95;1.73;;;16.40;70.80;;;;;;5034552;28;20049;-45
2021/05/16 03:02:26;;;;;;;2.40;2.08;;;16.40;70.80;;;;;;5033404;28;20088;-44
2021/05/16 03:04:52;;;;;;;2.10;1.90;;;16.40;70.80;;;;;;5039741;28;20055;-47
2021/05/16 03:07:18;;;;;;;2.38;2.17;;;16.40;70.80;;;;;;5051191;28;20049;-45
2021/05/16 03:09:44;;;;;;;2.08;1.88;;;16.40;70.80;;;;;;5034274;28;20057;-46
2021/05/16 03:12:10;;;;;;;2.92;2.05;;;16.40;70.80;;;;;;5033430;28;20441;-46
2021/05/16 03:14:35;;;;;;;2.20;1.90;;;16.40;70.80;;;;;;5053201;28;20049;-47
2021/05/16 03:17:02;;;;;;;1.98;1.77;;;16.50;70.80;;;;;;5050058;28;20072;-46
2021/05/16 03:19:28;;;;;;;2.10;1.90;;;16.40;70.80;;;;;;5043731;28;20068;-48
2021/05/16 03:21:54;;;;;;;2.20;1.92;;;16.60;70.90;;;;;;5053043;28;20068;-47
2021/05/16 03:24:20;;;;;;;2.00;1.80;;;16.40;70.80;;;;;;5052193;28;20457;-47
2021/05/16 03:26:46;;;;;;;2.78;2.30;;;16.40;70.80;;;;;;5040548;28;20065;-47
2021/05/16 03:29:12;;;;;;;2.22;2.03;;;16.40;70.80;;;;;;5052948;28;20049;-43
2021/05/16 03:31:39;;;;;;;2.10;1.90;;;16.40;70.80;;;;;;5050792;28;20387;-45
2021/05/16 03:34:06;;;;;;;2.15;1.90;;;16.40;70.80;;;;;;5052341;28;20509;-48
2021/05/16 03:36:32;;;;;;;2.10;1.90;;;16.40;70.80;;;;;;5035314;28;20136;-45
2021/05/16 03:38:58;;;;;;;2.22;1.77;;;16.40;70.80;;;;;;5034617;28;20095;-45
2021/05/16 03:41:24;;;;;;;1.90;1.80;;;16.40;70.90;;;;;;5049828;28;20498;-43
2021/05/16 03:43:50;;;;;;;1.88;1.67;;;16.40;70.90;;;;;;5051681;28;20490;-47
2021/05/16 03:46:16;;;;;;;1.98;1.73;;;16.40;70.80;;;;;;5051508;28;20153;-45
2021/05/16 03:48:42;;;;;;;2.13;1.92;;;16.40;70.80;;;;;;5050711;28;20056;-44
2021/05/16 03:51:08;;;;;;;1.85;1.70;;;16.40;70.90;;;;;;5029568;28;20053;-42
2021/05/16 03:53:33;;;;;;;2.33;1.98;;;16.50;70.90;;;;;;5042112;28;20069;-43
2021/05/16 03:55:59;;;;;;;2.20;1.90;;;16.40;70.90;;;;;;5041311;28;20095;-41
2021/05/16 03:58:25;;;;;;;2.20;2.00;;;16.40;70.80;;;;;;5032722;28;20049;-41
2021/05/16 04:00:51;;;;;;;2.00;1.80;;;16.40;71.50;;;;;;5033343;28;20048;-41
2021/05/16 04:03:17;;;;;;;2.10;1.90;;;16.40;70.90;;;;;;5050809;28;20053;-40
2021/05/16 04:05:43;;;;;;;2.05;1.85;;;16.40;70.90;;;;;;5044164;28;20073;-38
2021/05/16 04:08:08;;;;;;;2.20;2.00;;;16.40;70.90;;;;;;5040839;28;20473;-39
2021/05/16 04:10:34;;;;;;;2.45;2.22;;;16.40;70.90;;;;;;5052068;28;20497;-40
2021/05/16 04:13:00;;;;;;;2.10;1.90;;;16.30;70.80;;;;;;5033448;28;20481;-40
2021/05/16 04:15:26;;;;;;;2.20;1.98;;;16.40;70.90;;;;;;5032360;28;20501;-40
2021/05/16 04:17:51;;;;;;;1.98;1.77;;;16.40;70.90;;;;;;5032377;28;20532;-40
2021/05/16 04:20:17;;;;;;;2.20;2.00;;;16.40;70.90;;;;;;5032417;28;20046;-42
2021/05/16 04:22:43;;;;;;;2.28;2.08;;;16.40;70.90;;;;;;5036547;28;20559;-40
2021/05/16 04:25:09;;;;;;;1.88;1.77;;;16.40;70.90;;;;;;5051604;28;20044;-40
2021/05/16 04:27:35;;;;;;;2.53;2.33;;;16.40;70.90;;;;;;5044020;28;20124;-40
2021/05/16 04:30:01;;;;;;;2.35;2.13;;;16.40;70.90;;;;;;5032571;28;20127;-40
2021/05/16 04:32:27;;;;;;;2.03;1.88;;;16.30;70.90;;;;;;5032331;28;20049;-44
2021/05/16 04:34:52;;;;;;;2.00;1.80;;;16.40;70.90;;;;;;5044857;28;20052;-44
2021/05/16 04:37:18;;;;;;;2.10;1.83;;;16.40;70.90;;;;;;5040462;28;20049;-45
2021/05/16 04:39:44;;;;;;;2.15;1.90;;;16.40;70.90;;;;;;5042711;28;20056;-45
2021/05/16 04:42:10;;;;;;;2.17;1.83;;;16.40;70.90;;;;;;5042747;28;20050;-45
2021/05/16 04:44:36;;;;;;;2.00;1.80;;;16.40;70.90;;;;;;5046269;28;20052;-47
2021/05/16 04:47:01;;;;;;;2.13;1.70;;;16.40;70.90;;;;;;5051983;28;20183;-45
2021/05/16 04:49:27;;;;;;;2.10;1.90;;;16.40;70.90;;;;;;5052149;28;20449;-38
2021/05/16 04:51:53;;;;;;;1.73;1.63;;;16.40;70.90;;;;;;5049229;28;20481;-40
2021/05/16 04:54:18;;;;;;;1.90;1.70;;;16.30;70.90;;;;;;5042456;28;20041;-38
2021/05/16 04:56:44;;;;;;;2.42;2.22;;;16.30;70.90;;;;;;5040399;28;20045;-41
2021/05/16 04:59:10;;;;;;;2.22;2.03;;;16.30;70.90;;;;;;5049660;28;20091;-43
2021/05/16 05:01:38;;;;;;;2.25;2.03;;;16.40;70.90;;;;;;5051947;28;20079;-39
2021/05/16 05:04:04;;;;;;;2.13;1.92;;;16.40;71.60;;;;;;5051910;28;20049;-44
2021/05/16 05:06:30;;;;;;;1.80;1.70;;;16.40;71.00;;;;;;5051491;28;20051;-46
2021/05/16 05:08:58;;;;;;;1.90;1.67;;;16.30;70.90;;;;;;5051444;28;20412;-48
2021/05/16 05:11:24;;;;;;;2.40;2.05;;;16.40;71.00;;;;;;5040056;28;20137;-45
2021/05/16 05:13:49;;;;;;;2.15;1.95;;;16.30;70.90;;;;;;5017269;28;20432;-43
2021/05/16 05:16:16;;;;;;;2.70;2.50;;;16.40;71.00;;;;;;5051554;28;20049;-48
2021/05/16 05:18:41;;;;;;;2.28;2.08;;;16.30;70.90;;;;;;5043961;28;20046;-49
2021/05/16 05:21:08;;;;;;;2.00;1.80;;;16.40;71.00;;;;;;5054488;28;20048;-45
2021/05/16 05:23:35;;;;;;;2.15;1.92;;;16.30;70.90;;;;;;5054943;28;20048;-49
2021/05/16 05:26:00;;;;;;;2.20;2.00;;;16.30;70.90;;;;;;5055168;28;20099;-47
2021/05/16 05:28:26;;;;;;;2.47;1.90;;;16.40;71.00;;;;;;5055071;28;20421;-45
2021/05/16 05:30:52;;;;;;;2.83;2.00;;;16.40;71.00;;;;;;5053811;28;20044;-46
2021/05/16 05:33:22;;;;;;;2.17;1.92;;;16.30;70.90;;;;;;5054973;28;20062;-46
2021/05/16 05:35:48;;;;;;;2.50;2.08;;;16.30;70.90;;;;;;5054885;28;20063;-49
2021/05/16 05:38:14;;;;;;;2.33;2.10;;;16.30;70.90;;;;;;5054839;28;20470;-45
2021/05/16 05:40:40;;;;;;;2.20;2.00;;;16.40;71.00;;;;;;5037028;28;20182;-45
2021/05/16 05:43:06;;;;;;;2.25;2.00;;;16.30;70.90;;;;;;5043096;28;20095;-41
2021/05/16 05:45:33;;;;;;;2.17;1.98;;;16.30;70.90;;;;;;5054456;28;20048;-41
2021/05/16 05:47:59;;;;;;;2.30;2.00;;;16.40;71.00;;;;;;5054639;28;20068;-42
2021/05/16 05:50:25;;;;;;;2.00;1.80;;;16.40;71.00;;;;;;5054875;28;20052;-48
2021/05/16 05:52:51;;;;;;;1.95;1.75;;;16.30;71.00;;;;;;5052628;28;20068;-47
2021/05/16 05:55:17;;;;;;;2.28;2.03;;;16.30;70.90;;;;;;5053711;28;20406;-43
2021/05/16 05:57:42;;;;;;;1.63;1.52;;;16.30;71.00;;;;;;5038411;28;20170;-40
2021/05/16 06:00:09;;;;;;;2.15;1.80;;;16.30;70.90;;;;;;5037463;28;20048;-39
2021/05/16 06:02:35;;;;;;;2.00;1.70;;;16.30;71.00;;;;;;5053215;28;20405;-43
2021/05/16 06:05:01;;;;;;;2.65;2.17;;;16.30;70.90;;;;;;5038661;28;20124;-41
2021/05/16 06:07:27;;;;;;;2.28;2.03;;;16.30;71.00;;;;;;5043970;28;20128;-40
2021/05/16 06:09:53;;;;;;;2.08;1.88;;;16.30;71.00;;;;;;5038985;28;20050;-39
2021/05/16 06:12:19;;;;;;;2.97;2.20;;;16.30;71.00;;;;;;5036452;28;20049;-43
2021/05/16 06:14:48;;;;;;;2.50;2.17;;;16.40;71.00;;;;;;5043809;28;20042;-38
2021/05/16 06:17:14;;;;;;;2.60;2.20;;;16.30;71.00;;;;;;5041719;28;20050;-37
2021/05/16 06:19:39;;;;;;;2.67;2.10;;;16.30;71.00;;;;;;5034297;28;20115;-40
2021/05/16 06:22:07;;;;;;;2.55;2.17;;;16.30;71.00;;;;;;5034498;28;20052;-35
2021/05/16 06:24:33;;;;;;;2.60;2.28;;;16.30;71.00;;;;;;5053927;28;20084;-44
2021/05/16 06:27:00;;;;;;;2.58;2.00;;;16.30;71.00;;;;;;5053912;28;20574;-38
2021/05/16 06:29:25;;;;;;;2.65;2.13;;;16.30;71.00;;;;;;5048183;28;20045;-40
2021/05/16 06:31:51;;;;;;;2.40;2.03;;;16.30;71.00;;;;;;5053009;28;20458;-38
2021/05/16 06:34:17;;;;;;;2.83;2.53;;;16.30;71.00;;;;;;5036361;28;20053;-39
2021/05/16 06:36:43;;;;;;;1.92;1.73;;;16.30;71.00;;;;;;5034627;28;20076;-40
2021/05/16 06:39:08;;;;;;;3.20;2.50;;;16.40;71.10;;;;;;5018897;28;20033;-38
2021/05/16 06:41:34;;;;;;;2.30;2.10;;;16.30;71.00;;;;;;5053735;28;20045;-42
2021/05/16 06:44:00;;;;;;;3.03;2.33;;;16.30;71.00;;;;;;5053890;28;20045;-42
2021/05/16 06:46:27;;;;;;;2.42;2.20;;;16.30;71.00;;;;;;5053673;28;20053;-39
2021/05/16 06:48:55;;;;;;;2.47;2.00;;;16.30;71.00;;;;;;5053460;28;20095;-39
2021/05/16 06:51:21;;;;;;;2.65;2.20;;;16.30;71.00;;;;;;5051248;28;20139;-40
2021/05/16 06:53:48;;;;;;;3.30;2.63;;;16.40;71.10;;;;;;5034860;28;20048;-40
2021/05/16 06:56:14;;;;;;;2.35;1.90;;;16.40;71.10;;;;;;5033415;28;20077;-38
2021/05/16 06:58:41;;;;;;;2.78;2.22;;;16.40;71.00;;;;;;5033977;28;20045;-39
2021/05/16 07:01:08;;;;;;;2.03;1.83;;;16.30;71.00;;;;;;5033539;28;20046;-39
2021/05/16 07:03:35;;;;;;;2.92;2.45;;;16.30;71.00;;;;;;5033529;28;20050;-41
2021/05/16 07:06:01;;;;;;;2.63;1.95;;;16.40;71.10;;;;;;5033376;28;20042;-44
2021/05/16 07:08:27;;;;;;;2.83;2.30;;;16.30;71.00;;;;;;5015740;28;20462;-41
2021/05/16 07:10:54;;;;;;;2.40;2.10;;;16.40;71.00;;;;;;5033504;28;20128;-38
2021/05/16 07:13:20;;;;;;;2.80;2.40;;;16.40;71.10;;;;;;5053206;28;20084;-44
2021/05/16 07:15:46;;;;;;;3.70;2.20;;;16.30;71.00;;;;;;5035304;28;20041;-40
2021/05/16 07:18:11;;;;;;;2.83;2.00;;;16.40;71.10;;;;;;5052956;28;20094;-41
2021/05/16 07:20:38;;;;;;;2.40;2.08;;;16.30;71.00;;;;;;5052917;28;20116;-41
2021/05/16 07:23:05;;;;;;;2.47;2.10;;;16.30;71.00;;;;;;5052972;28;20071;-44
2021/05/16 07:25:30;;;;;;;2.25;2.05;;;16.40;71.10;;;;;;5052848;28;20462;-43
2021/05/16 07:27:57;;;;;;;2.55;2.22;;;16.30;71.00;;;;;;5052235;28;20045;-42
2021/05/16 07:30:24;;;;;;;2.38;2.13;;;16.40;71.10;;;;;;5052534;28;20095;-38
2021/05/16 07:32:49;;;;;;;2.42;2.00;;;16.40;71.10;;;;;;5052876;28;20174;-46
2021/05/16 07:35:17;;;;;;;2.60;1.92;;;16.40;71.10;;;;;;5052617;28;20474;-47
2021/05/16 07:37:43;;;;;;;3.35;2.38;;;16.40;71.70;;;;;;5052603;28;20053;-39
2021/05/16 07:40:10;;;;;;;2.65;2.00;;;16.40;71.00;;;;;;5036526;28;20041;-45
2021/05/16 07:42:36;;;;;;;2.40;2.13;;;16.30;71.00;;;;;;5043562;28;20041;-46
2021/05/16 07:45:03;;;;;;;2.80;2.00;;;16.30;71.00;;;;;;5052372;28;20448;-41
2021/05/16 07:47:29;;;;;;;3.20;2.45;;;16.40;71.10;;;;;;5052487;28;20131;-40
2021/05/16 07:49:55;;;;;;;2.72;2.08;;;16.40;71.10;;;;;;5052206;28;20458;-40
2021/05/16 07:52:21;;;;;;;2.42;2.08;;;16.40;71.10;;;;;;5050534;28;20445;-42
2021/05/16 07:54:47;;;;;;;3.28;2.30;;;16.40;71.00;;;;;;5050949;28;20041;-38
2021/05/16 07:57:12;;;;;;;2.28;1.98;;;16.40;71.00;;;;;;5039828;28;20037;-43
2021/05/16 07:59:38;;;;;;;2.63;2.20;;;16.40;71.00;;;;;;5032535;28;20064;-48
2021/05/16 08:02:04;;;;;;;2.35;2.13;;;16.40;71.10;;;;;;5051257;28;20071;-42
2021/05/16 08:04:31;;;;;;;1.90;1.70;;;16.40;71.00;;;;;;5052496;28;20060;-46
2021/05/16 08:06:57;;;;;;;2.67;2.08;;;16.40;71.00;;;;;;5052353;28;20489;-41
2021/05/16 08:09:24;;;;;;;2.08;1.80;;;16.40;71.00;;;;;;5052444;28;20060;-42
2021/05/16 08:11:50;;;;;;;1.92;1.73;;;16.40;71.00;;;;;;5052477;28;20452;-44
2021/05/16 08:14:16;;;;;;;2.13;1.77;;;16.40;71.00;;;;;;5033069;28;20057;-49
2021/05/16 08:16:41;;;;;;;2.10;1.90;;;16.40;71.00;;;;;;5032218;28;20084;-42
2021/05/16 08:19:08;;;;;;;1.90;1.73;;;16.40;71.00;;;;;;5035062;28;20077;-46
2021/05/16 08:21:35;;;;;;;2.28;1.83;;;16.50;71.10;;;;;;5052380;28;20052;-38
2021/05/16 08:24:01;;;;;;;2.50;1.90;;;16.40;71.00;;;;;;5037141;28;20132;-39
2021/05/16 08:26:27;;;;;;;3.20;1.83;;;16.40;71.00;;;;;;5032138;28;20124;-39
2021/05/16 08:28:52;;;;;;;2.22;1.80;;;16.40;71.10;;;;;;5031902;28;20048;-39
2021/05/16 08:31:18;;;;;;;2.13;1.83;;;16.30;71.00;;;;;;5032119;28;20050;-43
2021/05/16 08:33:44;;;;;;;1.63;1.52;;;16.50;71.00;;;;;;5032252;28;20060;-42
2021/05/16 08:36:09;;;;;;;1.92;1.77;;;16.40;71.60;;;;;;5032275;28;20084;-41
2021/05/16 08:38:35;;;;;;;1.92;1.67;;;16.40;71.00;;;;;;5032267;28;20097;-41
2021/05/16 08:41:01;;;;;;;2.72;1.85;;;16.40;71.00;;;;;;5032093;28;20500;-38
2021/05/16 08:43:27;;;;;;;1.80;1.67;;;16.40;71.00;;;;;;5032161;28;20235;-41
2021/05/16 08:45:54;;;;;;;1.73;1.55;;;16.40;71.00;;;;;;5032157;28;20077;-40
2021/05/16 08:48:20;;;;;;;2.00;1.85;;;16.40;71.00;;;;;;5031944;28;20061;-45
2021/05/16 08:50:46;;;;;;;1.75;1.63;;;16.40;70.90;;;;;;5049306;28;20533;-43
2021/05/16 08:53:12;;;;;;;1.80;1.70;;;16.40;70.90;;;;;;5034941;28;20058;-43
2021/05/16 08:55:37;;;;;;;1.75;1.50;;;16.40;71.60;;;;;;5040151;28;20215;-45
2021/05/16 08:58:04;;;;;;;1.83;1.60;;;16.40;70.90;;;;;;5046261;28;20439;-43
2021/05/16 09:00:32;;;;;;;1.98;1.67;;;16.40;70.90;;;;;;5031296;28;20116;-43
2021/05/16 09:03:06;;;;;;;1.55;1.45;;;16.40;70.90;;;;;;5043981;28;20128;-39
2021/05/16 09:05:37;;;;;;;1.50;1.38;;;16.40;70.90;;;;;;5050792;28;20049;-37
2021/05/16 09:08:09;;;;;;;2.38;1.80;;;16.40;70.90;;;;;;5039118;28;20382;-43
2021/05/16 09:10:35;;;;;;;1.83;1.60;;;16.30;70.80;;;;;;5052870;28;20052;-40
2021/05/16 09:13:18;;;;;;;1.85;1.48;;;16.40;70.90;;;;;;5051310;28;20049;-40
2021/05/16 09:16:01;;;;;;;1.63;1.52;;;16.50;70.90;;;;;;5050898;28;20528;-39
2021/05/16 09:18:51;;;;;;;1.85;1.60;;;16.40;70.90;;;;;;5051633;28;20053;-42
2021/05/16 09:21:34;;;;;;;1.90;1.55;;;16.50;70.90;;;;;;5050908;28;20053;-38
2021/05/16 09:23:59;;;;;;;1.70;1.40;;;16.50;70.90;;;;;;5046295;28;20045;-42
2021/05/16 09:26:26;;;;;;;1.60;1.48;;;16.50;71.50;;;;;;5031499;28;20099;-40
2021/05/16 09:28:53;;;;;;;1.83;1.52;;;16.50;70.90;;;;;;5031069;28;20041;-41
2021/05/16 09:31:35;;;;;;;1.40;1.30;;;16.50;70.90;;;;;;5030998;28;20474;-39
2021/05/16 09:34:05;;;;;;;1.40;1.30;;;16.50;70.90;;;;;;5031341;28;20498;-39
2021/05/16 09:36:35;;;;;;;1.98;1.63;;;16.50;70.80;;;;;;5030773;28;20041;-39
2021/05/16 09:39:26;;;;;;;1.40;1.30;;;16.50;70.90;;;;;;5030636;28;20081;-39
2021/05/16 09:42:08;;;;;;;1.20;1.10;;;16.50;70.80;;;;;;5031006;28;20052;-39
2021/05/16 09:44:41;;;;;;;1.42;1.33;;;16.50;70.90;;;;;;5031131;28;20045;-39
2021/05/16 09:47:18;;;;;;;1.95;1.60;;;16.40;70.80;;;;;;5049542;28;20499;-38
2021/05/16 09:50:04;;;;;;;1.40;1.30;;;16.50;70.90;;;;;;5050730;28;20060;-38
2021/05/16 09:52:34;;;;;;;2.00;1.27;;;16.50;70.80;;;;;;5050322;28;20106;-42
2021/05/16 09:55:11;;;;;;;2.05;1.40;;;16.50;70.80;;;;;;5050848;28;20048;-42
2021/05/16 09:57:38;;;;;;;1.40;1.30;;;16.50;70.80;;;;;;5032446;28;20118;-38
2021/05/16 10:00:06;;;;;;;2.25;1.30;;;16.60;71.00;;;;;;5030701;28;20075;-40
2021/05/16 10:02:32;;;;;;;1.20;1.10;;;16.50;70.90;;;;;;5030712;28;20061;-40
2021/05/16 10:05:01;;;;;;;2.28;1.88;;;16.40;70.80;;;;;;5030028;28;20506;-42
2021/05/16 10:07:29;;;;;;;1.33;1.20;;;16.50;70.90;;;;;;5031921;28;20410;-41
2021/05/16 10:09:57;;;;;;;1.63;1.40;;;16.50;70.90;;;;;;5030648;28;20056;-39
2021/05/16 10:12:23;;;;;;;2.05;1.60;;;16.60;71.00;;;;;;5030614;28;20065;-42
2021/05/16 10:15:01;;;;;;;1.42;1.33;;;16.60;71.00;;;;;;5030988;28;20045;-42
2021/05/16 10:17:27;;;;;;;1.50;1.40;;;16.50;70.80;;;;;;5031758;28;20072;-38
2021/05/16 10:19:54;;;;;;;1.30;1.20;;;16.50;70.90;;;;;;5030945;28;20046;-37
2021/05/16 10:22:25;;;;;;;1.30;1.20;;;16.60;70.90;;;;;;5030779;28;20049;-37
2021/05/16 10:24:51;;;;;;;1.77;1.40;;;16.50;70.90;;;;;;5038263;28;20041;-37
2021/05/16 10:27:24;;;;;;;1.67;1.10;;;16.60;70.90;;;;;;5030643;28;20107;-37
2021/05/16 10:29:52;;;;;;;1.52;1.33;;;16.60;70.90;;;;;;5030624;28;20045;-39
2021/05/16 10:32:22;;;;;;;1.27;1.17;;;16.60;70.90;;;;;;5030426;28;20054;-42
2021/05/16 10:35:07;;;;;;;1.70;1.27;;;16.50;70.80;;;;;;5030542;28;20049;-40
2021/05/16 10:37:46;;;;;;;1.40;1.30;;;16.60;70.90;;;;;;5030602;28;20045;-39
2021/05/16 10:40:22;;;;;;;3.20;1.30;;;16.60;70.90;;;;;;5047690;28;20303;-37
2021/05/16 10:42:48;;;;;;;1.40;1.30;;;16.60;70.90;;;;;;5030766;28;20053;-38
2021/05/16 10:45:16;;;;;;;1.30;1.20;;;16.60;70.90;;;;;;5030401;28;20414;-38
2021/05/16 10:47:46;;;;;;;2.10;1.40;;;16.60;70.90;;;;;;5029749;28;20084;-39
2021/05/16 10:50:24;;;;;;;1.08;1.05;;;16.60;70.90;;;;;;5031234;28;20588;-39
2021/05/16 10:53:17;;;;;;;1.30;1.20;;;16.60;70.90;;;;;;5046622;28;20063;-39
2021/05/16 10:55:46;;;;;;;1.52;1.35;;;16.60;70.80;;;;;;5050056;28;20060;-40
2021/05/16 10:58:34;;;;;;;1.02;1.00;;;16.60;70.80;;;;;;5032461;28;20072;-40
2021/05/16 11:01:13;;;;;;;1.42;1.20;;;16.60;70.80;;;;;;5051363;28;20067;-40
2021/05/16 11:03:51;;;;;;;1.25;1.15;;;16.60;70.80;;;;;;5051748;28;20068;-38
2021/05/16 11:06:22;;;;;;;1.20;1.10;;;16.60;70.80;;;;;;5053558;28;20049;-39
2021/05/16 11:08:48;;;;;;;1.30;1.20;;;16.60;70.80;;;;;;5053284;28;20061;-40
2021/05/16 11:11:28;;;;;;;1.23;0.95;;;16.60;70.80;;;;;;5053590;28;20049;-43
2021/05/16 11:13:54;;;;;;;2.10;1.10;;;16.70;70.90;;;;;;5051473;28;20147;-38
2021/05/16 11:16:19;;;;;;;1.20;1.10;;;16.60;70.80;;;;;;5053028;28;20448;-39
2021/05/16 11:18:45;;;;;;;1.40;1.23;;;16.70;70.90;;;;;;5052560;28;20049;-44
2021/05/16 11:21:11;;;;;;;2.58;1.30;;;16.70;70.90;;;;;;5053322;28;20448;-40
2021/05/16 11:23:39;;;;;;;1.48;1.30;;;16.70;70.80;;;;;;5051392;28;20533;-40
2021/05/16 11:26:10;;;;;;;1.48;1.23;;;16.70;70.90;;;;;;5052570;28;20052;-41
2021/05/16 11:28:57;;;;;;;1.17;1.13;;;16.80;70.90;;;;;;5053100;28;20397;-42
2021/05/16 11:31:26;;;;;;;1.50;1.33;;;16.70;70.80;;;;;;5052897;28;20072;-39
2021/05/16 11:33:54;;;;;;;1.55;1.27;;;16.70;70.90;;;;;;5051040;28;20044;-44
2021/05/16 11:36:27;;;;;;;2.80;1.08;;;16.70;70.90;;;;;;5052844;28;20051;-42
2021/05/16 11:38:54;;;;;;;2.45;1.33;;;16.70;70.90;;;;;;5052960;28;20501;-45
2021/05/16 11:41:40;;;;;;;1.58;1.38;;;16.70;71.10;;;;;;5053036;28;20045;-42
2021/05/16 11:44:08;;;;;;;1.60;1.20;;;16.80;70.90;;;;;;5051417;28;20112;-40
2021/05/16 11:46:40;;;;;;;1.20;1.10;;;16.80;70.90;;;;;;5036108;28;20421;-43
2021/05/16 11:49:10;;;;;;;1.67;1.20;;;16.70;70.90;;;;;;5052102;28;20053;-43
2021/05/16 11:51:36;;;;;;;1.13;1.05;;;16.70;70.80;;;;;;5052689;28;20118;-39
2021/05/16 11:54:06;;;;;;;1.20;1.10;;;16.80;70.90;;;;;;5052712;28;20049;-37
2021/05/16 11:56:36;;;;;;;1.83;1.20;;;16.70;70.80;;;;;;5050702;28;20079;-39
2021/05/16 11:59:05;;;;;;;1.17;0.85;;;16.80;70.80;;;;;;5052084;28;20057;-42
2021/05/16 12:01:45;;;;;;;0.98;0.98;;;16.80;70.80;;;;;;5052241;28;20171;-40
2021/05/16 12:04:21;;;;;;;1.33;1.10;;;16.80;70.80;;;;;;5051988;28;20520;-37
2021/05/16 12:06:54;;;;;;;1.35;1.15;;;16.60;70.70;;;;;;5049793;28;20044;-36
2021/05/16 12:09:25;;;;;;;2.10;1.25;;;16.80;70.80;;;;;;5025760;28;20418;-35
2021/05/16 12:11:55;;;;;;;0.90;0.90;;;16.80;70.80;;;;;;5046829;28;20152;-36
2021/05/16 12:14:26;;;;;;;1.10;0.90;;;16.80;70.70;;;;;;5032970;28;20076;-36
2021/05/16 12:17:02;;;;;;;1.20;1.10;;;16.80;70.70;;;;;;5032303;28;20041;-36
2021/05/16 12:19:30;;;;;;;0.95;0.85;;;16.80;70.70;;;;;;5032125;28;20490;-39
2021/05/16 12:21:58;;;;;;;1.30;1.10;;;16.80;70.70;;;;;;5032353;28;20041;-37
2021/05/16 12:24:26;;;;;;;1.92;1.10;;;16.80;70.70;;;;;;5032473;28;20060;-37
2021/05/16 12:26:53;;;;;;;1.08;0.90;;;16.80;70.70;;;;;;5036845;28;20076;-37
2021/05/16 12:29:20;;;;;;;1.40;0.90;;;16.80;70.70;;;;;;5053937;28;20088;-38
2021/05/16 12:31:46;;;;;;;1.17;0.90;;;16.90;70.70;;;;;;5056475;28;20404;-37
2021/05/16 12:34:15;;;;;;;1.33;1.00;;;16.80;70.60;;;;;;5038371;28;20575;-38
2021/05/16 12:37:14;;;;;;;0.90;0.90;;;16.80;70.60;;;;;;5055963;28;20061;-39
2021/05/16 12:39:41;;;;;;;0.95;0.80;;;16.90;70.70;;;;;;5055856;28;20446;-37
2021/05/16 12:42:27;;;;;;;1.77;1.10;;;16.90;70.70;;;;;;5056145;28;20116;-37
2021/05/16 12:44:55;;;;;;;1.00;1.00;;;16.90;70.60;;;;;;5055898;28;20051;-37
2021/05/16 12:47:23;;;;;;;1.00;0.90;;;16.90;70.60;;;;;;5055960;28;20047;-37
2021/05/16 12:49:49;;;;;;;0.68;0.68;;;16.80;70.60;;;;;;5055648;28;20092;-35
2021/05/16 12:52:24;;;;;;;1.02;0.90;;;16.90;70.60;;;;;;5054044;28;20430;-44